Time;durP1;ratioP1;P1;durP2;ratioP2;P2;SDS_P1;SDS_P2;PMS_P1;PMS_P2;Temp;Humidity;BMP_temperature;BMP_pressure;BME280_temperature;BME280_humidity;BME280_pressure;Samples;Min_cycle;Max_cycle;Signal;HPM_P1;HPM_P2
2023/03/29 20:34:13;;;;;;;1.87;1.77;;;12.10;87.20;;;;;;4986684;28;20735;-70
2023/03/29 20:36:42;;;;;;;4.10;1.50;;;12.10;86.30;;;;;;4981854;28;20684;-70
2023/03/29 20:39:11;;;;;;;2.60;1.47;;;12.10;86.20;;;;;;4984944;28;20617;-70
2023/03/29 20:41:38;;;;;;;1.80;1.70;;;12.10;86.00;;;;;;4986648;28;20700;-70
2023/03/29 20:44:06;;;;;;;1.63;1.20;;;12.10;86.00;;;;;;4986561;28;20733;-73
2023/03/29 20:46:36;;;;;;;1.40;1.10;;;12.00;86.20;;;;;;4987244;28;20649;-70
2023/03/29 20:49:07;;;;;;;2.67;2.17;;;12.00;86.30;;;;;;4987145;28;21349;-71
2023/03/29 20:51:36;;;;;;;1.50;1.20;;;12.00;85.80;;;;;;4987547;28;20645;-70
2023/03/29 20:54:09;;;;;;;1.40;1.30;;;12.00;84.60;;;;;;4987458;28;20700;-70
2023/03/29 20:56:38;;;;;;;1.80;1.50;;;12.10;83.60;;;;;;4984481;28;20661;-70
2023/03/29 20:59:09;;;;;;;2.37;1.60;;;12.10;82.60;;;;;;4987046;28;20632;-72
2023/03/29 21:01:39;;;;;;;1.70;1.10;;;12.10;82.20;;;;;;4988027;28;20663;-70
2023/03/29 21:04:08;;;;;;;1.13;1.03;;;12.20;80.10;;;;;;4987230;28;20641;-71
2023/03/29 21:06:39;;;;;;;1.50;1.37;;;12.20;79.60;;;;;;4987243;28;20703;-70
2023/03/29 21:09:11;;;;;;;1.47;1.37;;;12.20;80.60;;;;;;4987517;28;21001;-70
2023/03/29 21:11:39;;;;;;;1.70;1.23;;;12.30;79.20;;;;;;4987385;28;20673;-71
2023/03/29 21:14:09;;;;;;;3.03;1.20;;;12.30;79.40;;;;;;4991287;28;20714;-71
2023/03/29 21:16:41;;;;;;;1.90;1.43;;;12.30;79.30;;;;;;4991329;28;20660;-70
2023/03/29 21:19:10;;;;;;;0.60;0.60;;;12.30;79.50;;;;;;4991373;28;20625;-71
2023/03/29 21:21:40;;;;;;;1.70;0.80;;;12.30;79.40;;;;;;4991287;28;20656;-70
2023/03/29 21:24:09;;;;;;;1.33;1.23;;;12.10;85.30;;;;;;4990752;28;21105;-71
2023/03/29 21:26:36;;;;;;;1.73;0.60;;;12.30;78.80;;;;;;4990814;28;20744;-70
2023/03/29 21:29:03;;;;;;;1.23;0.80;;;12.30;79.20;;;;;;4990985;28;20630;-70
2023/03/29 21:31:31;;;;;;;0.90;0.90;;;12.40;78.50;;;;;;4991401;28;20660;-70
2023/03/29 21:34:01;;;;;;;0.70;0.70;;;12.40;78.50;;;;;;4991287;28;20671;-70
2023/03/29 21:36:27;;;;;;;2.93;0.93;;;12.40;78.70;;;;;;4989944;28;21046;-70
2023/03/29 21:38:56;;;;;;;0.80;0.73;;;12.40;78.50;;;;;;4990173;28;20972;-70
2023/03/29 21:41:22;;;;;;;0.80;0.70;;;12.40;78.10;;;;;;4990995;28;20656;-70
2023/03/29 21:43:51;;;;;;;1.60;0.70;;;12.40;78.40;;;;;;4990707;28;21181;-70
2023/03/29 21:46:18;;;;;;;1.07;1.07;;;12.40;78.70;;;;;;4990443;28;20727;-70
2023/03/29 21:48:45;;;;;;;0.83;0.80;;;12.50;78.40;;;;;;4990674;28;20663;-71
2023/03/29 21:51:13;;;;;;;1.40;0.90;;;12.50;78.60;;;;;;4990732;28;20692;-71
2023/03/29 21:53:42;;;;;;;2.23;1.20;;;12.40;78.90;;;;;;4991166;28;20668;-69
2023/03/29 21:56:12;;;;;;;0.50;0.40;;;12.40;79.30;;;;;;4990550;28;20715;-70
2023/03/29 21:58:39;;;;;;;2.00;1.17;;;12.50;79.50;;;;;;4990325;28;21028;-70
2023/03/29 22:01:08;;;;;;;1.23;1.00;;;12.50;79.30;;;;;;4990682;28;20656;-71
2023/03/29 22:03:36;;;;;;;1.67;1.17;;;12.50;79.10;;;;;;4990925;28;20640;-70
2023/03/29 22:06:07;;;;;;;1.53;1.37;;;12.50;79.20;;;;;;4990119;28;20687;-69
2023/03/29 22:08:37;;;;;;;1.17;1.07;;;12.50;79.40;;;;;;4988643;28;20944;-68
2023/03/29 22:11:09;;;;;;;1.43;1.33;;;12.50;79.90;;;;;;4988017;28;20663;-68
2023/03/29 22:13:37;;;;;;;2.37;0.80;;;12.50;79.90;;;;;;4988205;28;20672;-68
2023/03/29 22:16:07;;;;;;;2.20;1.20;;;12.60;79.90;;;;;;4986791;28;20653;-70
2023/03/29 22:18:42;;;;;;;1.00;0.53;;;12.40;90.70;;;;;;4987833;28;20633;-69
2023/03/29 22:21:11;;;;;;;2.60;1.20;;;12.60;80.20;;;;;;4988540;28;20774;-69
2023/03/29 22:23:38;;;;;;;2.30;1.27;;;13.00;83.80;;;;;;4989133;28;20671;-69
2023/03/29 22:26:08;;;;;;;0.60;0.60;;;12.50;80.70;;;;;;4989363;28;20653;-71
2023/03/29 22:28:40;;;;;;;0.83;0.83;;;12.60;80.50;;;;;;4988016;28;21379;-69
2023/03/29 22:31:11;;;;;;;0.30;0.30;;;12.50;80.10;;;;;;4989579;28;21065;-70
2023/03/29 22:33:39;;;;;;;0.83;0.60;;;12.70;80.50;;;;;;4989411;28;20778;-70
2023/03/29 22:36:13;;;;;;;0.47;0.47;;;12.80;80.60;;;;;;4989495;28;21005;-69
2023/03/29 22:38:40;;;;;;;7.50;0.83;;;12.70;80.50;;;;;;4988627;28;20625;-69
2023/03/29 22:41:10;;;;;;;1.10;1.00;;;12.80;80.50;;;;;;4985316;28;20666;-69
2023/03/29 22:43:41;;;;;;;2.07;1.17;;;12.80;80.40;;;;;;4989185;28;21027;-68
2023/03/29 22:46:11;;;;;;;1.20;0.80;;;12.90;80.60;;;;;;4989546;28;20661;-69
2023/03/29 22:48:38;;;;;;;0.67;0.67;;;12.90;80.60;;;;;;4988875;28;20621;-69
2023/03/29 22:51:07;;;;;;;0.70;0.70;;;12.90;80.40;;;;;;4989671;28;20656;-70
2023/03/29 22:53:34;;;;;;;2.30;0.80;;;13.00;80.50;;;;;;4989408;28;20625;-69
2023/03/29 22:56:01;;;;;;;0.90;0.90;;;13.10;80.20;;;;;;4989335;28;20652;-69
2023/03/29 22:58:28;;;;;;;1.03;0.70;;;13.20;80.20;;;;;;4987605;28;21203;-67
2023/03/29 23:00:57;;;;;;;0.93;0.63;;;13.20;80.10;;;;;;4983623;28;21238;-69
2023/03/29 23:03:24;;;;;;;1.07;0.80;;;13.20;84.70;;;;;;4981295;28;20716;-69
2023/03/29 23:05:51;;;;;;;0.73;0.73;;;13.10;80.60;;;;;;4989074;28;20764;-69
2023/03/29 23:08:22;;;;;;;1.60;1.13;;;13.00;81.10;;;;;;4987779;28;20629;-71
2023/03/29 23:10:51;;;;;;;0.70;0.70;;;13.10;81.30;;;;;;4989385;28;20660;-69
2023/03/29 23:13:23;;;;;;;1.27;0.93;;;13.10;81.20;;;;;;4989220;28;21074;-69
2023/03/29 23:15:51;;;;;;;1.27;0.80;;;13.10;81.30;;;;;;4988589;28;20673;-69
2023/03/29 23:18:22;;;;;;;0.87;0.60;;;13.00;81.20;;;;;;4987655;28;20624;-70
2023/03/29 23:20:55;;;;;;;12.13;2.87;;;13.10;81.20;;;;;;4983935;28;21021;-69
2023/03/29 23:23:23;;;;;;;0.70;0.70;;;13.10;81.40;;;;;;4988881;28;21079;-69
2023/03/29 23:25:51;;;;;;;8.83;1.20;;;13.10;81.70;;;;;;4989113;28;20661;-69
2023/03/29 23:28:22;;;;;;;0.67;0.67;;;13.10;81.60;;;;;;4987414;28;20764;-69
2023/03/29 23:30:56;;;;;;;1.17;1.07;;;13.30;80.90;;;;;;4988531;28;20655;-67
2023/03/29 23:33:32;;;;;;;0.67;0.60;;;13.30;80.90;;;;;;4988460;28;20748;-71
2023/03/29 23:36:02;;;;;;;6.83;0.80;;;13.20;81.00;;;;;;4977500;28;20652;-69
2023/03/29 23:38:28;;;;;;;2.97;0.90;;;13.20;80.70;;;;;;4987889;28;20720;-68
2023/03/29 23:40:57;;;;;;;2.57;0.73;;;13.30;80.70;;;;;;4988300;28;20660;-68
2023/03/29 23:43:25;;;;;;;0.83;0.60;;;13.40;80.90;;;;;;4988288;28;21070;-68
2023/03/29 23:45:56;;;;;;;1.70;1.33;;;13.30;80.90;;;;;;4987837;28;20761;-68
2023/03/29 23:48:26;;;;;;;1.87;1.20;;;13.40;80.80;;;;;;4987605;28;20629;-68
2023/03/29 23:50:53;;;;;;;3.33;1.60;;;13.40;81.90;;;;;;4987709;28;21008;-68
2023/03/29 23:53:20;;;;;;;1.07;0.90;;;13.80;81.50;;;;;;4988480;28;20629;-68
2023/03/29 23:55:48;;;;;;;4.10;0.87;;;13.50;82.30;;;;;;4988256;28;21246;-69
2023/03/29 23:58:16;;;;;;;8.77;1.50;;;13.50;82.40;;;;;;4987151;28;20672;-68
